Wheeler Observed Data For Previous 48 Hours

Caption
Day and Hour Reservoir Elevation (behind dam)* Tailwater Elevation (below dam)* Average Hourly Discharge*
11/16/2017 1 AM CST 552.77 507.21 51,132
11/16/2017 2 AM CST 552.78 507.20 50,990
11/16/2017 3 AM CST 552.80 507.23 50,994
11/16/2017 4 AM CST 552.83 507.23 51,064
11/16/2017 5 AM CST 552.82 507.32 51,012
11/16/2017 6 AM CST 552.84 507.48 59,280
11/16/2017 7 AM CST 552.86 507.46 60,041
11/16/2017 8 AM CST 552.86 507.46 60,400
11/16/2017 9 AM CST 552.88 507.57 60,246
11/16/2017 10 AM CST 552.88 507.55 60,246
11/16/2017 11 AM CST 552.94 507.36 51,438
11/16/2017 12 PM CST 552.95 507.31 50,981
11/16/2017 1 PM CST 552.96 507.34 50,874
11/16/2017 2 PM CST 552.97 507.35 51,000
11/16/2017 3 PM CST 552.99 507.33 51,037
11/16/2017 4 PM CST 553.00 507.40 51,199
11/16/2017 5 PM CST 553.02 507.39 51,299
11/16/2017 6 PM CST 553.02 507.47 59,939
11/16/2017 7 PM CST 553.03 507.43 60,303
11/16/2017 8 PM CST 553.02 507.41 60,323
11/16/2017 9 PM CST 553.00 507.44 60,404
11/16/2017 10 PM CST 552.97 507.46 60,532
11/16/2017 11 PM CST 552.99 507.29 51,599
11/17/2017 12 AM CST 552.98 507.20 51,014
11/17/2017 1 AM CST 552.98 507.23 51,090
11/17/2017 2 AM CST 552.97 507.27 51,039
11/17/2017 3 AM CST 552.97 507.27 51,025
11/17/2017 4 AM CST 552.96 507.33 51,010
11/17/2017 5 AM CST 552.93 507.35 50,967
11/17/2017 6 AM CST 552.94 507.23 50,977
11/17/2017 7 AM CST 552.94 507.23 50,907
11/17/2017 8 AM CST 552.91 507.21 51,075
11/17/2017 9 AM CST 552.92 507.17 50,886
11/17/2017 10 AM CST 552.94 507.13 51,047
11/17/2017 11 AM CST 552.93 507.21 51,192
11/17/2017 12 PM CST 552.91 507.19 51,109
11/17/2017 1 PM CST 552.90 507.20 51,113
11/17/2017 2 PM CST 552.90 507.26 51,141
11/17/2017 3 PM CST 552.90 507.27 51,124
11/17/2017 4 PM CST 552.89 507.31 51,064
11/17/2017 5 PM CST 552.88 507.34 50,999
11/17/2017 6 PM CST 552.87 507.31 50,995
11/17/2017 7 PM CST 552.86 507.28 51,008
11/17/2017 8 PM CST 552.86 507.29 50,942
11/17/2017 9 PM CST 552.87 507.32 51,034
11/17/2017 10 PM CST 552.84 507.26 51,052
11/17/2017 11 PM CST 552.82 507.33 50,956
11/18/2017 12 AM CST 552.84 507.34 50,935
11/18/2017 1 AM CST 552.81 507.31 51,015
11/18/2017 2 AM CST 552.81 507.45 50,907
11/18/2017 3 AM CST 552.81 507.35 50,878
11/18/2017 4 AM CST 552.80 507.36 50,979
11/18/2017 5 AM CST 552.78 507.37 51,071
11/18/2017 6 AM CST 552.77 507.33 51,000
11/18/2017 7 AM CST 552.78 507.31 51,052
11/18/2017 8 AM CST 552.78 507.32 51,137
11/18/2017 9 AM CST 552.76 507.26 51,033

Elevations are in feet above sea level. Discharges are in cubic feet per second and are reported at the end of the hour.